createdAt,value
2023-03-02T00:01:31.661Z,56.97
2023-03-02T00:04:01.248Z,56.60
2023-03-02T00:06:31.339Z,54.13
2023-03-02T00:09:00.770Z,55.90
2023-03-02T00:11:30.444Z,58.80
2023-03-02T00:13:57.671Z,57.63
2023-03-02T00:16:24.782Z,57.22
2023-03-02T00:18:51.802Z,57.50
2023-03-02T00:21:18.568Z,58.97
2023-03-02T00:23:45.488Z,58.03
2023-03-02T00:26:12.752Z,54.47
2023-03-02T00:28:39.528Z,57.10
2023-03-02T00:31:07.108Z,52.17
2023-03-02T00:33:34.764Z,56.47
2023-03-02T00:36:02.962Z,59.90
2023-03-02T00:38:30.205Z,61.00
2023-03-02T00:40:57.124Z,59.63
2023-03-02T00:46:18.826Z,57.78
2023-03-02T00:48:46.397Z,65.15
2023-03-02T00:51:14.037Z,59.10
2023-03-02T00:53:41.819Z,64.00
2023-03-02T00:56:10.257Z,60.58
2023-03-02T00:58:37.713Z,70.63
2023-03-02T01:01:07.497Z,68.15
2023-03-02T01:03:34.480Z,62.92
2023-03-02T01:06:01.707Z,63.30
2023-03-02T01:08:28.541Z,61.97
2023-03-02T01:10:55.735Z,62.03
2023-03-02T01:13:23.141Z,66.70
2023-03-02T01:15:50.406Z,64.13
2023-03-02T01:18:17.207Z,66.30
2023-03-02T01:20:44.009Z,67.70
2023-03-02T01:23:10.825Z,72.35
2023-03-02T01:25:39.105Z,65.50
2023-03-02T01:28:05.940Z,66.28
2023-03-02T01:30:33.102Z,66.28
2023-03-02T01:32:59.850Z,67.32
2023-03-02T01:35:26.869Z,73.45
2023-03-02T01:37:54.122Z,73.30
2023-03-02T01:40:20.952Z,71.55
2023-03-02T01:42:56.612Z,74.55
2023-03-02T01:45:48.985Z,75.70
2023-03-02T01:48:20.608Z,72.60
2023-03-02T01:50:48.124Z,66.47
2023-03-02T01:53:16.668Z,71.97
2023-03-02T01:55:46.133Z,70.65
2023-03-02T01:58:15.872Z,69.82
2023-03-02T02:00:43.441Z,74.88
2023-03-02T02:03:25.063Z,70.35
2023-03-02T02:06:09.303Z,67.70
2023-03-02T02:08:38.470Z,68.93
2023-03-02T02:11:06.589Z,71.90
2023-03-02T02:13:33.741Z,74.70
2023-03-02T02:16:00.765Z,73.32
2023-03-02T02:18:28.168Z,74.90
2023-03-02T02:20:56.105Z,75.32
2023-03-02T02:23:28.046Z,75.22
2023-03-02T02:26:23.412Z,75.65
2023-03-02T02:29:22.906Z,70.18
2023-03-02T02:31:57.775Z,67.60
2023-03-02T02:34:32.101Z,73.68
2023-03-02T02:37:06.789Z,71.05
2023-03-02T02:39:37.965Z,71.57
2023-03-02T02:42:11.873Z,69.65
2023-03-02T02:44:39.794Z,72.43
2023-03-02T02:47:18.963Z,71.82
2023-03-02T02:49:48.382Z,70.25
2023-03-02T02:52:18.095Z,69.30
2023-03-02T02:54:48.687Z,69.28
2023-03-02T02:57:17.927Z,68.30
2023-03-02T02:59:51.227Z,71.65
2023-03-02T03:02:23.795Z,72.47
2023-03-02T03:04:50.809Z,72.88
2023-03-02T03:07:25.384Z,68.03
2023-03-02T03:09:59.542Z,69.03
2023-03-02T03:12:26.939Z,73.18
2023-03-02T03:14:54.466Z,74.88
2023-03-02T03:17:21.961Z,75.30
2023-03-02T03:19:48.777Z,72.07
2023-03-02T03:22:17.544Z,75.00
2023-03-02T03:24:45.595Z,70.20
2023-03-02T03:27:19.792Z,72.90
2023-03-02T03:29:48.420Z,74.00
2023-03-02T03:32:16.331Z,82.00
2023-03-02T03:34:44.418Z,74.05
2023-03-02T03:37:14.249Z,73.78
2023-03-02T03:39:42.324Z,70.65
2023-03-02T03:42:09.117Z,73.90
2023-03-02T03:44:36.491Z,74.32
2023-03-02T03:47:03.754Z,77.47
2023-03-02T03:49:30.550Z,77.05
2023-03-02T03:51:57.714Z,74.72
2023-03-02T03:54:24.472Z,73.88
2023-03-02T03:56:51.809Z,77.93
2023-03-02T03:59:22.683Z,73.47
2023-03-02T04:01:59.115Z,73.47
2023-03-02T04:04:30.409Z,72.93
2023-03-02T04:06:57.447Z,70.60
2023-03-02T04:09:25.127Z,78.05
2023-03-02T04:11:54.388Z,77.18
2023-03-02T04:14:22.783Z,76.72
2023-03-02T04:16:50.376Z,76.60
2023-03-02T04:19:18.153Z,74.32
2023-03-02T04:21:50.359Z,74.82
2023-03-02T04:24:18.560Z,74.65
2023-03-02T04:26:46.459Z,78.00
2023-03-02T04:29:14.438Z,79.90
2023-03-02T04:31:41.381Z,78.25
2023-03-02T04:34:09.542Z,78.38
2023-03-02T04:36:39.334Z,81.95
2023-03-02T04:39:07.245Z,77.53
2023-03-02T04:41:34.493Z,85.72
2023-03-02T04:44:01.313Z,80.43
2023-03-02T04:46:28.867Z,91.40
2023-03-02T04:48:55.981Z,83.30
2023-03-02T04:51:26.949Z,80.60
2023-03-02T04:54:02.357Z,87.65
2023-03-02T04:56:29.515Z,85.65
2023-03-02T04:58:56.791Z,92.15
2023-03-02T05:01:23.840Z,90.45
2023-03-02T05:03:50.998Z,91.25
2023-03-02T05:06:17.906Z,87.88
2023-03-02T05:08:45.457Z,79.63
2023-03-02T05:11:22.270Z,84.93
2023-03-02T05:14:00.392Z,81.20
2023-03-02T05:16:29.643Z,85.25
2023-03-02T05:18:56.829Z,80.22
2023-03-02T05:21:24.182Z,82.80
2023-03-02T05:23:51.616Z,90.72
2023-03-02T05:26:18.694Z,89.15
2023-03-02T05:28:46.823Z,86.38
2023-03-02T05:31:24.152Z,79.65
2023-03-02T05:33:50.907Z,85.25
2023-03-02T05:36:19.866Z,83.78
2023-03-02T05:38:47.522Z,85.43
2023-03-02T05:41:15.133Z,82.75
2023-03-02T05:43:42.009Z,90.65
2023-03-02T05:46:09.258Z,88.47
2023-03-02T05:48:36.516Z,90.65
2023-03-02T05:51:03.613Z,86.47
2023-03-02T05:53:30.393Z,101.78
2023-03-02T05:55:57.161Z,89.72
2023-03-02T05:58:24.135Z,91.82
2023-03-02T06:00:52.049Z,93.60
2023-03-02T06:03:19.099Z,98.15
2023-03-02T06:05:51.384Z,89.40
2023-03-02T06:08:20.155Z,94.82
2023-03-02T06:10:47.397Z,82.47
2023-03-02T06:13:14.214Z,89.38
2023-03-02T06:15:43.204Z,92.30
2023-03-02T06:18:12.771Z,86.57
2023-03-02T06:20:40.499Z,91.43
2023-03-02T06:23:07.316Z,91.57
2023-03-02T06:25:36.013Z,97.90
2023-03-02T06:28:02.816Z,99.22
2023-03-02T06:30:31.168Z,105.07
2023-03-02T06:32:58.365Z,107.65
2023-03-02T06:35:25.250Z,91.18
2023-03-02T06:37:54.552Z,76.13
2023-03-02T06:40:21.736Z,75.43
2023-03-02T06:42:48.637Z,76.25
2023-03-02T06:45:15.887Z,76.05
2023-03-02T06:47:42.720Z,64.45
2023-03-02T06:50:10.385Z,65.75
2023-03-02T06:52:37.651Z,63.97
2023-03-02T06:55:04.895Z,70.10
2023-03-02T06:57:34.572Z,69.35
2023-03-02T07:00:09.518Z,61.95
2023-03-02T07:02:37.173Z,65.13
2023-03-02T07:05:04.456Z,67.68
2023-03-02T07:07:31.681Z,70.45
2023-03-02T07:09:58.795Z,69.63
2023-03-02T07:12:26.011Z,64.03
2023-03-02T07:14:53.277Z,67.50
2023-03-02T07:17:20.005Z,63.83
2023-03-02T07:19:46.779Z,61.53
2023-03-02T07:22:13.566Z,63.45
2023-03-02T07:24:40.777Z,62.15
2023-03-02T07:27:07.656Z,61.45
2023-03-02T07:29:34.456Z,64.40
2023-03-02T07:32:01.337Z,60.67
2023-03-02T07:34:28.408Z,63.00
2023-03-02T07:36:55.702Z,58.90
2023-03-02T07:39:22.911Z,62.95
2023-03-02T07:41:49.735Z,59.58
2023-03-02T07:44:16.542Z,62.00
2023-03-02T07:46:43.343Z,58.50
2023-03-02T07:49:10.209Z,59.88
2023-03-02T07:51:37.432Z,61.55
2023-03-02T07:54:05.067Z,61.38
2023-03-02T07:56:32.367Z,58.92
2023-03-02T07:58:59.220Z,59.22
2023-03-02T08:01:26.439Z,58.05
2023-03-02T08:03:53.533Z,60.33
2023-03-02T08:06:20.908Z,58.70
2023-03-02T08:08:48.159Z,59.87
2023-03-02T08:11:17.463Z,55.30
2023-03-02T08:13:45.756Z,58.53
2023-03-02T08:16:15.013Z,58.00
2023-03-02T08:18:42.822Z,59.97
2023-03-02T08:21:18.752Z,62.77
2023-03-02T08:23:46.094Z,55.63
2023-03-02T08:26:17.385Z,57.90
2023-03-02T08:28:44.849Z,58.23
2023-03-02T08:31:13.842Z,59.47
2023-03-02T08:33:41.127Z,55.57
2023-03-02T08:36:12.879Z,57.43
2023-03-02T08:38:40.136Z,58.17
2023-03-02T08:41:10.800Z,50.70
2023-03-02T08:43:37.790Z,49.90
2023-03-02T08:46:05.092Z,46.03
2023-03-02T08:48:32.397Z,43.20
2023-03-02T08:51:05.632Z,44.73
2023-03-02T08:53:36.991Z,45.13
2023-03-02T08:56:04.077Z,46.63
2023-03-02T08:58:31.444Z,40.43
2023-03-02T09:00:58.668Z,42.70
2023-03-02T09:03:25.475Z,42.67
2023-03-02T09:05:52.730Z,41.77
2023-03-02T09:08:19.876Z,29.87
2023-03-02T09:10:46.661Z,34.50
2023-03-02T09:13:13.885Z,33.07
2023-03-02T09:15:40.876Z,35.40
2023-03-02T09:18:07.658Z,31.00
2023-03-02T09:20:34.775Z,30.60
2023-03-02T09:23:01.549Z,31.30
2023-03-02T09:25:28.719Z,33.93
2023-03-02T09:27:55.482Z,27.55
2023-03-02T09:30:22.295Z,25.92
2023-03-02T09:32:49.632Z,29.38
2023-03-02T09:35:16.691Z,24.83
2023-03-02T09:37:44.660Z,31.27
2023-03-02T09:40:21.882Z,25.50
2023-03-02T09:42:53.752Z,29.55
2023-03-02T09:45:20.464Z,27.77
2023-03-02T09:47:53.020Z,31.90
2023-03-02T09:50:40.645Z,34.28
2023-03-02T09:53:17.309Z,25.38
2023-03-02T09:55:48.160Z,23.35
2023-03-02T09:58:20.949Z,26.50
2023-03-02T10:00:48.736Z,27.15
2023-03-02T10:03:26.149Z,26.83
2023-03-02T10:05:55.537Z,24.92
2023-03-02T10:08:30.803Z,25.08
2023-03-02T10:11:16.724Z,23.77
2023-03-02T10:14:02.335Z,21.23
2023-03-02T10:16:48.319Z,26.15
2023-03-02T10:19:34.060Z,25.98
2023-03-02T10:22:18.078Z,25.90
2023-03-02T10:24:54.817Z,26.00
2023-03-02T10:27:33.779Z,20.33
2023-03-02T10:30:21.911Z,24.75
2023-03-02T10:32:50.926Z,21.65
2023-03-02T10:35:23.575Z,22.10
2023-03-02T10:38:12.829Z,22.45
2023-03-02T10:40:57.515Z,23.67
2023-03-02T10:43:53.215Z,23.13
2023-03-02T10:46:20.563Z,21.30
2023-03-02T10:48:59.930Z,21.75
2023-03-02T10:51:34.385Z,19.75
2023-03-02T10:54:11.392Z,26.42
2023-03-02T10:56:43.040Z,24.38
2023-03-02T10:59:29.811Z,24.60
2023-03-02T11:02:11.799Z,24.80
2023-03-02T11:04:38.698Z,24.60
2023-03-02T11:07:17.921Z,26.65
2023-03-02T11:09:57.873Z,27.48
2023-03-02T11:12:24.875Z,24.80
2023-03-02T11:15:21.590Z,23.30
2023-03-02T11:18:01.791Z,24.80
2023-03-02T11:20:33.296Z,21.85
2023-03-02T11:23:14.470Z,22.05
2023-03-02T11:25:52.433Z,23.10
2023-03-02T11:28:27.853Z,24.13
2023-03-02T11:30:57.370Z,20.13
2023-03-02T11:33:37.497Z,19.85
2023-03-02T11:36:22.782Z,21.95
2023-03-02T11:38:54.446Z,21.30
2023-03-02T11:41:30.267Z,21.48
2023-03-02T11:44:01.376Z,21.05
2023-03-02T11:46:33.951Z,22.42
2023-03-02T11:49:23.757Z,24.20
2023-03-02T11:52:00.243Z,22.42
2023-03-02T11:55:06.979Z,18.13
2023-03-02T11:57:39.599Z,19.45
2023-03-02T12:00:16.037Z,20.17
2023-03-02T12:02:43.084Z,22.10
2023-03-02T12:05:28.474Z,24.65
2023-03-02T12:08:02.119Z,24.98
2023-03-02T12:10:34.875Z,21.40
2023-03-02T12:13:10.527Z,21.80
2023-03-02T12:15:39.899Z,21.55
2023-03-02T12:18:31.930Z,23.83
2023-03-02T12:21:10.909Z,19.20
2023-03-02T12:23:51.481Z,22.58
2023-03-02T12:26:21.388Z,23.17
2023-03-02T12:29:26.291Z,19.55
2023-03-02T12:31:55.553Z,22.13
2023-03-02T12:34:35.696Z,20.77
2023-03-02T12:37:16.182Z,21.45
2023-03-02T12:40:10.837Z,22.30
2023-03-02T12:43:11.155Z,18.77
2023-03-02T12:45:50.822Z,19.67
2023-03-02T12:48:24.160Z,19.80
2023-03-02T12:50:53.190Z,19.20
2023-03-02T12:53:20.396Z,19.77
2023-03-02T12:55:47.890Z,18.00
2023-03-02T12:58:21.015Z,17.15
2023-03-02T13:00:56.975Z,17.55
2023-03-02T13:03:24.501Z,16.45
2023-03-02T13:05:51.358Z,15.88
2023-03-02T13:08:25.784Z,14.38
2023-03-02T13:10:58.267Z,15.68
2023-03-02T13:13:43.759Z,15.93
2023-03-02T13:16:24.980Z,15.02
2023-03-02T13:18:57.008Z,13.93
2023-03-02T13:21:39.142Z,14.30
2023-03-02T13:24:27.784Z,13.30
2023-03-02T13:27:04.137Z,14.27
2023-03-02T13:29:31.978Z,13.10
2023-03-02T13:32:24.105Z,12.10
2023-03-02T13:34:59.486Z,13.50
2023-03-02T13:37:40.575Z,12.38
2023-03-02T13:40:31.279Z,13.70
2023-03-02T13:42:58.436Z,13.98
2023-03-02T13:45:31.180Z,15.65
2023-03-02T13:48:00.322Z,14.25
2023-03-02T13:50:30.012Z,16.20
2023-03-02T13:52:58.825Z,13.15
2023-03-02T13:55:26.685Z,14.23
2023-03-02T13:57:54.687Z,14.55
2023-03-02T14:00:26.638Z,13.48
2023-03-02T14:02:53.821Z,13.82
2023-03-02T14:05:27.095Z,14.35
2023-03-02T14:07:54.406Z,12.30
2023-03-02T14:10:21.167Z,13.57
2023-03-02T14:13:00.499Z,13.35
2023-03-02T14:15:27.361Z,14.70
2023-03-02T14:17:54.472Z,13.85
2023-03-02T14:20:21.247Z,12.25
2023-03-02T14:22:48.901Z,10.75
2023-03-02T14:25:15.738Z,10.55
2023-03-02T14:27:43.716Z,11.13
2023-03-02T14:30:21.177Z,12.05
2023-03-02T14:32:48.473Z,11.20
2023-03-02T14:35:16.725Z,10.45
2023-03-02T14:37:47.567Z,12.60
2023-03-02T14:40:24.209Z,11.68
2023-03-02T14:42:52.267Z,12.93
2023-03-02T14:45:20.178Z,15.07
2023-03-02T14:47:48.977Z,13.30
2023-03-02T14:50:17.380Z,13.75
2023-03-02T14:52:56.615Z,14.57
2023-03-02T14:55:31.664Z,14.57
2023-03-02T14:58:32.725Z,15.23
2023-03-02T15:01:00.549Z,14.30
2023-03-02T15:03:27.588Z,15.18
2023-03-02T15:06:01.287Z,14.65
2023-03-02T15:08:29.238Z,11.60
2023-03-02T15:10:56.213Z,12.75
2023-03-02T15:13:23.006Z,14.25
2023-03-02T15:15:50.187Z,12.45
2023-03-02T15:18:19.839Z,11.93
2023-03-02T15:20:46.780Z,13.70
2023-03-02T15:23:13.674Z,11.23
2023-03-02T15:25:41.129Z,12.35
2023-03-02T15:28:07.923Z,12.73
2023-03-02T15:30:35.089Z,13.23
2023-03-02T15:33:02.282Z,11.00
2023-03-02T15:35:29.547Z,11.10
2023-03-02T15:37:58.356Z,11.57
2023-03-02T15:40:25.809Z,10.68
2023-03-02T15:42:53.164Z,10.45
2023-03-02T15:45:20.098Z,11.15
2023-03-02T15:47:46.980Z,9.88
2023-03-02T15:50:14.197Z,11.48
2023-03-02T15:52:42.067Z,10.90
2023-03-02T15:55:09.594Z,11.25
2023-03-02T15:57:38.346Z,11.18
2023-03-02T16:00:06.323Z,14.18
2023-03-02T16:02:33.331Z,12.63
2023-03-02T16:05:00.149Z,12.07
2023-03-02T16:07:27.260Z,14.05
2023-03-02T16:09:54.042Z,13.05
2023-03-02T16:12:23.727Z,13.60
2023-03-02T16:14:50.533Z,18.45
2023-03-02T16:17:21.197Z,18.35
2023-03-02T16:19:47.989Z,28.00
2023-03-02T16:22:15.113Z,31.98
2023-03-02T16:24:42.079Z,32.70
2023-03-02T16:27:11.090Z,35.13
2023-03-02T16:29:40.603Z,36.72
2023-03-02T16:32:09.124Z,35.58
2023-03-02T16:34:36.593Z,36.00
2023-03-02T16:37:03.673Z,37.03
2023-03-02T16:39:33.256Z,37.58
2023-03-02T16:42:00.224Z,36.47
2023-03-02T16:44:29.636Z,41.20
2023-03-02T16:46:57.751Z,37.28
2023-03-02T16:49:25.165Z,37.80
2023-03-02T16:51:57.966Z,38.92
2023-03-02T16:54:27.000Z,38.38
2023-03-02T16:56:55.149Z,38.80
2023-03-02T16:59:22.074Z,42.00
2023-03-02T17:01:48.899Z,42.17
2023-03-02T17:04:18.391Z,43.63
2023-03-02T17:06:59.781Z,41.08
2023-03-02T17:09:27.933Z,41.38
2023-03-02T17:11:55.396Z,40.53
2023-03-02T17:14:22.150Z,41.10
2023-03-02T17:16:48.932Z,41.50
2023-03-02T17:19:16.121Z,40.00
2023-03-02T17:21:43.766Z,42.75
2023-03-02T17:24:11.190Z,39.35
2023-03-02T17:26:38.044Z,38.05
2023-03-02T17:29:06.554Z,41.08
2023-03-02T17:31:33.648Z,37.40
2023-03-02T17:34:00.886Z,42.65
2023-03-02T17:36:28.941Z,41.13
2023-03-02T17:38:55.760Z,42.00
2023-03-02T17:41:22.901Z,42.25
2023-03-02T17:43:49.655Z,39.55
2023-03-02T17:46:25.289Z,39.28
2023-03-02T17:48:57.421Z,41.35
2023-03-02T17:51:25.497Z,40.83
2023-03-02T17:53:53.440Z,38.17
2023-03-02T17:56:24.381Z,38.08
2023-03-02T17:59:00.670Z,41.88
2023-03-02T18:01:28.473Z,40.63
2023-03-02T18:03:56.020Z,40.55
2023-03-02T18:06:23.183Z,41.90
2023-03-02T18:08:51.693Z,37.08
2023-03-02T18:11:21.409Z,38.70
2023-03-02T18:13:49.086Z,40.33
2023-03-02T18:16:16.601Z,40.80
2023-03-02T18:18:43.412Z,40.50
2023-03-02T18:21:10.938Z,45.58
2023-03-02T18:23:38.178Z,42.55
2023-03-02T18:26:05.493Z,40.90
2023-03-02T18:28:36.118Z,42.40
2023-03-02T18:31:05.408Z,42.22
2023-03-02T18:33:32.529Z,43.33
2023-03-02T18:36:01.014Z,42.95
2023-03-02T18:38:30.924Z,47.60
2023-03-02T18:41:03.761Z,42.03
2023-03-02T18:43:35.762Z,40.17
2023-03-02T18:46:07.277Z,43.05
2023-03-02T18:48:34.769Z,41.45
2023-03-02T18:51:01.568Z,46.72
2023-03-02T18:53:30.348Z,45.03
2023-03-02T18:55:57.231Z,44.08
2023-03-02T18:58:25.710Z,50.63
2023-03-02T19:00:54.349Z,48.92
2023-03-02T19:03:22.886Z,51.85
2023-03-02T19:05:49.667Z,45.72
2023-03-02T19:08:17.753Z,53.08
2023-03-02T19:10:44.526Z,48.85
2023-03-02T19:13:11.858Z,52.72
2023-03-02T19:15:40.306Z,51.80
2023-03-02T19:18:09.397Z,52.85
2023-03-02T19:20:37.275Z,55.30
2023-03-02T19:23:04.068Z,52.20
2023-03-02T19:25:30.868Z,51.25
2023-03-02T19:27:59.122Z,52.65
2023-03-02T19:30:28.607Z,57.85
2023-03-02T19:32:55.458Z,54.95
2023-03-02T19:35:25.709Z,52.42
2023-03-02T19:37:53.069Z,58.25
2023-03-02T19:40:22.164Z,59.38
2023-03-02T19:42:49.759Z,61.72
2023-03-02T19:45:29.979Z,57.65
2023-03-02T19:47:57.990Z,57.80
2023-03-02T19:50:26.170Z,55.70
2023-03-02T19:52:54.816Z,60.10
2023-03-02T19:55:24.314Z,59.58
2023-03-02T19:57:57.057Z,58.28
2023-03-02T20:00:24.279Z,63.83
2023-03-02T20:02:52.478Z,62.35
2023-03-02T20:05:19.644Z,58.80
2023-03-02T20:07:46.479Z,59.20
2023-03-02T20:10:26.470Z,55.13
2023-03-02T20:12:53.321Z,52.47
2023-03-02T20:15:20.255Z,59.10
2023-03-02T20:17:47.126Z,50.47
2023-03-02T20:20:14.348Z,56.88
2023-03-02T20:22:41.117Z,52.63
2023-03-02T20:25:09.198Z,58.00
2023-03-02T20:27:35.967Z,57.53
2023-03-02T20:30:05.703Z,58.17
2023-03-02T20:32:32.562Z,58.95
2023-03-02T20:34:59.420Z,58.65
2023-03-02T20:37:26.491Z,55.72
2023-03-02T20:39:53.563Z,54.97
2023-03-02T20:42:20.426Z,50.88
2023-03-02T20:44:47.470Z,55.22
2023-03-02T20:47:16.351Z,55.63
2023-03-02T20:49:43.877Z,51.58
2023-03-02T20:52:11.047Z,49.42
2023-03-02T20:54:41.293Z,42.80
2023-03-02T20:57:09.185Z,49.83
2023-03-02T20:59:38.076Z,47.47
2023-03-02T21:02:05.656Z,49.67
2023-03-02T21:04:35.721Z,53.58
2023-03-02T21:07:03.216Z,52.38
2023-03-02T21:09:30.681Z,48.22
2023-03-02T21:11:58.850Z,51.75
2023-03-02T21:14:31.155Z,53.78
2023-03-02T21:16:58.923Z,54.40
2023-03-02T21:19:26.068Z,53.25
2023-03-02T21:21:54.734Z,59.67
2023-03-02T21:24:22.069Z,54.58
2023-03-02T21:26:51.997Z,54.85
2023-03-02T21:29:21.064Z,53.47
2023-03-02T21:31:48.994Z,56.05
2023-03-02T21:34:18.886Z,53.70
2023-03-02T21:36:46.736Z,54.33
2023-03-02T21:39:14.495Z,53.83
2023-03-02T21:41:41.312Z,54.60
2023-03-02T21:44:08.188Z,52.58
2023-03-02T21:46:36.874Z,51.15
2023-03-02T21:49:04.150Z,54.45
2023-03-02T21:51:31.383Z,52.80
2023-03-02T21:53:58.346Z,52.95
2023-03-02T21:56:27.120Z,54.08
2023-03-02T21:58:56.655Z,49.38
2023-03-02T22:01:24.473Z,51.10
2023-03-02T22:03:51.653Z,50.92
2023-03-02T22:06:24.628Z,52.80
2023-03-02T22:08:53.663Z,49.75
2023-03-02T22:11:27.268Z,52.17
2023-03-02T22:13:58.990Z,52.58
2023-03-02T22:16:28.857Z,52.97
2023-03-02T22:18:58.235Z,55.08
2023-03-02T22:21:25.370Z,54.88
2023-03-02T22:24:17.784Z,56.63
2023-03-02T22:26:57.415Z,52.85
2023-03-02T22:29:26.161Z,55.05
2023-03-02T22:31:56.175Z,53.25
2023-03-02T22:34:29.651Z,53.67
2023-03-02T22:37:09.997Z,51.75
2023-03-02T22:39:37.128Z,54.88
2023-03-02T22:42:12.930Z,57.67
2023-03-02T22:44:39.753Z,52.20
2023-03-02T22:47:19.138Z,51.53
2023-03-02T22:49:47.113Z,48.08
2023-03-02T22:52:17.948Z,47.13
2023-03-02T22:54:45.666Z,52.03
2023-03-02T22:57:35.758Z,48.25
2023-03-02T23:00:11.873Z,55.78
2023-03-02T23:02:42.649Z,49.20
2023-03-02T23:05:29.572Z,46.35
2023-03-02T23:08:17.213Z,47.38
2023-03-02T23:10:45.686Z,49.22
2023-03-02T23:13:18.337Z,47.92
2023-03-02T23:15:47.202Z,47.38
2023-03-02T23:18:26.040Z,50.40
2023-03-02T23:20:53.728Z,46.90
2023-03-02T23:23:22.859Z,49.33
2023-03-02T23:25:50.998Z,45.45
2023-03-02T23:28:17.751Z,48.58
2023-03-02T23:30:45.349Z,46.25
2023-03-02T23:33:12.132Z,48.30
2023-03-02T23:35:40.311Z,43.63
2023-03-02T23:38:07.133Z,45.83
2023-03-02T23:40:35.033Z,46.65
2023-03-02T23:43:02.205Z,40.40
2023-03-02T23:45:29.460Z,41.03
2023-03-02T23:47:57.698Z,41.90
2023-03-02T23:50:24.567Z,42.72
2023-03-02T23:52:51.699Z,44.80
2023-03-02T23:55:18.854Z,40.63
2023-03-02T23:57:45.671Z,41.05
